sensor_id;sensor_type;location;lat;lon;timestamp;P1;durP1;ratioP1;P2;durP2;ratioP2
50900;SDS011;36879;51.416;6.678;2022-10-26T00:00:38;17.25;;;8.07;;
50900;SDS011;36879;51.416;6.678;2022-10-26T00:03:04;16.98;;;7.70;;
50900;SDS011;36879;51.416;6.678;2022-10-26T00:05:31;16.95;;;7.53;;
50900;SDS011;36879;51.416;6.678;2022-10-26T00:07:58;18.10;;;7.90;;
50900;SDS011;36879;51.416;6.678;2022-10-26T00:10:24;14.27;;;7.05;;
50900;SDS011;36879;51.416;6.678;2022-10-26T00:12:50;18.73;;;7.57;;
50900;SDS011;36879;51.416;6.678;2022-10-26T00:15:17;14.00;;;6.28;;
50900;SDS011;36879;51.416;6.678;2022-10-26T00:17:43;11.82;;;5.75;;
50900;SDS011;36879;51.416;6.678;2022-10-26T00:20:09;8.60;;;4.78;;
50900;SDS011;36879;51.416;6.678;2022-10-26T00:22:35;10.40;;;4.05;;
50900;SDS011;36879;51.416;6.678;2022-10-26T00:25:02;8.27;;;4.13;;
50900;SDS011;36879;51.416;6.678;2022-10-26T00:27:28;9.30;;;3.55;;
50900;SDS011;36879;51.416;6.678;2022-10-26T00:29:54;13.85;;;4.07;;
50900;SDS011;36879;51.416;6.678;2022-10-26T00:32:20;12.23;;;4.07;;
50900;SDS011;36879;51.416;6.678;2022-10-26T00:34:46;7.45;;;4.25;;
50900;SDS011;36879;51.416;6.678;2022-10-26T00:37:12;8.70;;;4.00;;
50900;SDS011;36879;51.416;6.678;2022-10-26T00:39:38;11.88;;;4.78;;
50900;SDS011;36879;51.416;6.678;2022-10-26T00:42:04;10.55;;;5.35;;
50900;SDS011;36879;51.416;6.678;2022-10-26T00:47:08;14.18;;;5.85;;
50900;SDS011;36879;51.416;6.678;2022-10-26T00:49:34;14.35;;;5.95;;
50900;SDS011;36879;51.416;6.678;2022-10-26T00:52:00;14.05;;;5.20;;
50900;SDS011;36879;51.416;6.678;2022-10-26T00:54:26;9.50;;;5.13;;
50900;SDS011;36879;51.416;6.678;2022-10-26T00:56:52;12.63;;;6.32;;
50900;SDS011;36879;51.416;6.678;2022-10-26T00:59:19;12.52;;;6.47;;
50900;SDS011;36879;51.416;6.678;2022-10-26T01:01:46;12.27;;;5.43;;
50900;SDS011;36879;51.416;6.678;2022-10-26T01:04:13;16.25;;;6.10;;
50900;SDS011;36879;51.416;6.678;2022-10-26T01:06:40;8.15;;;3.83;;
50900;SDS011;36879;51.416;6.678;2022-10-26T01:09:06;14.82;;;4.90;;
50900;SDS011;36879;51.416;6.678;2022-10-26T01:11:32;10.88;;;3.33;;
50900;SDS011;36879;51.416;6.678;2022-10-26T01:13:58;9.05;;;3.40;;
50900;SDS011;36879;51.416;6.678;2022-10-26T01:21:51;9.43;;;3.22;;
50900;SDS011;36879;51.416;6.678;2022-10-26T01:24:22;7.60;;;2.15;;
50900;SDS011;36879;51.416;6.678;2022-10-26T01:27:11;4.13;;;1.67;;
50900;SDS011;36879;51.416;6.678;2022-10-26T01:29:52;5.15;;;2.00;;
50900;SDS011;36879;51.416;6.678;2022-10-26T01:32:26;4.43;;;2.05;;
50900;SDS011;36879;51.416;6.678;2022-10-26T01:37:30;4.53;;;2.40;;
50900;SDS011;36879;51.416;6.678;2022-10-26T01:39:59;4.03;;;1.77;;
50900;SDS011;36879;51.416;6.678;2022-10-26T01:42:26;4.63;;;2.33;;
50900;SDS011;36879;51.416;6.678;2022-10-26T01:44:57;8.77;;;2.15;;
50900;SDS011;36879;51.416;6.678;2022-10-26T01:47:25;6.72;;;2.67;;
50900;SDS011;36879;51.416;6.678;2022-10-26T01:49:52;10.90;;;3.47;;
50900;SDS011;36879;51.416;6.678;2022-10-26T01:52:19;15.45;;;5.57;;
50900;SDS011;36879;51.416;6.678;2022-10-26T01:54:45;11.23;;;5.65;;
50900;SDS011;36879;51.416;6.678;2022-10-26T01:57:13;13.20;;;4.93;;
50900;SDS011;36879;51.416;6.678;2022-10-26T02:04:47;10.25;;;4.90;;
50900;SDS011;36879;51.416;6.678;2022-10-26T02:07:25;8.63;;;3.35;;
50900;SDS011;36879;51.416;6.678;2022-10-26T02:10:02;9.07;;;4.05;;
50900;SDS011;36879;51.416;6.678;2022-10-26T02:15:03;12.27;;;3.65;;
50900;SDS011;36879;51.416;6.678;2022-10-26T02:17:37;7.53;;;3.00;;
50900;SDS011;36879;51.416;6.678;2022-10-26T02:20:07;7.20;;;3.13;;
50900;SDS011;36879;51.416;6.678;2022-10-26T02:22:38;9.73;;;3.17;;
50900;SDS011;36879;51.416;6.678;2022-10-26T02:25:06;7.78;;;3.22;;
50900;SDS011;36879;51.416;6.678;2022-10-26T02:27:35;5.78;;;1.85;;
50900;SDS011;36879;51.416;6.678;2022-10-26T02:30:02;8.60;;;1.88;;
50900;SDS011;36879;51.416;6.678;2022-10-26T02:32:30;5.25;;;2.30;;
50900;SDS011;36879;51.416;6.678;2022-10-26T02:34:58;7.85;;;1.90;;
50900;SDS011;36879;51.416;6.678;2022-10-26T02:37:26;7.00;;;1.75;;
50900;SDS011;36879;51.416;6.678;2022-10-26T02:39:52;10.68;;;2.40;;
50900;SDS011;36879;51.416;6.678;2022-10-26T02:42:20;4.25;;;1.98;;
50900;SDS011;36879;51.416;6.678;2022-10-26T02:44:48;4.93;;;2.10;;
50900;SDS011;36879;51.416;6.678;2022-10-26T02:47:15;3.10;;;1.90;;
50900;SDS011;36879;51.416;6.678;2022-10-26T02:49:41;6.20;;;2.25;;
50900;SDS011;36879;51.416;6.678;2022-10-26T02:52:09;10.73;;;2.13;;
50900;SDS011;36879;51.416;6.678;2022-10-26T02:57:10;10.15;;;2.22;;
50900;SDS011;36879;51.416;6.678;2022-10-26T02:59:39;8.77;;;3.28;;
50900;SDS011;36879;51.416;6.678;2022-10-26T03:02:06;6.28;;;1.55;;
50900;SDS011;36879;51.416;6.678;2022-10-26T03:04:33;6.47;;;1.73;;
50900;SDS011;36879;51.416;6.678;2022-10-26T03:06:59;4.65;;;1.23;;
50900;SDS011;36879;51.416;6.678;2022-10-26T03:09:26;7.65;;;1.98;;
50900;SDS011;36879;51.416;6.678;2022-10-26T03:11:52;2.83;;;1.48;;
50900;SDS011;36879;51.416;6.678;2022-10-26T03:14:18;2.10;;;1.20;;
50900;SDS011;36879;51.416;6.678;2022-10-26T03:16:44;4.05;;;1.27;;
50900;SDS011;36879;51.416;6.678;2022-10-26T03:19:10;3.17;;;1.23;;
50900;SDS011;36879;51.416;6.678;2022-10-26T03:21:36;8.40;;;1.70;;
50900;SDS011;36879;51.416;6.678;2022-10-26T03:24:02;3.33;;;1.60;;
50900;SDS011;36879;51.416;6.678;2022-10-26T03:26:28;3.95;;;2.20;;
50900;SDS011;36879;51.416;6.678;2022-10-26T03:28:54;5.43;;;1.38;;
50900;SDS011;36879;51.416;6.678;2022-10-26T03:31:20;3.70;;;1.75;;
50900;SDS011;36879;51.416;6.678;2022-10-26T03:33:46;4.85;;;1.50;;
50900;SDS011;36879;51.416;6.678;2022-10-26T03:36:12;5.93;;;1.40;;
50900;SDS011;36879;51.416;6.678;2022-10-26T03:38:38;8.02;;;2.45;;
50900;SDS011;36879;51.416;6.678;2022-10-26T03:41:04;5.45;;;1.20;;
50900;SDS011;36879;51.416;6.678;2022-10-26T03:43:30;5.22;;;1.52;;
50900;SDS011;36879;51.416;6.678;2022-10-26T03:45:56;8.10;;;1.48;;
50900;SDS011;36879;51.416;6.678;2022-10-26T03:48:22;3.50;;;1.33;;
50900;SDS011;36879;51.416;6.678;2022-10-26T03:50:48;6.22;;;1.42;;
50900;SDS011;36879;51.416;6.678;2022-10-26T03:53:14;8.02;;;1.80;;
50900;SDS011;36879;51.416;6.678;2022-10-26T03:55:42;4.18;;;1.17;;
50900;SDS011;36879;51.416;6.678;2022-10-26T03:58:08;1.90;;;0.98;;
50900;SDS011;36879;51.416;6.678;2022-10-26T04:00:34;4.50;;;1.80;;
50900;SDS011;36879;51.416;6.678;2022-10-26T04:03:00;4.57;;;1.58;;
50900;SDS011;36879;51.416;6.678;2022-10-26T04:05:27;8.70;;;1.83;;
50900;SDS011;36879;51.416;6.678;2022-10-26T04:10:19;4.22;;;1.45;;
50900;SDS011;36879;51.416;6.678;2022-10-26T04:12:45;7.10;;;1.90;;
50900;SDS011;36879;51.416;6.678;2022-10-26T04:15:11;4.72;;;1.35;;
50900;SDS011;36879;51.416;6.678;2022-10-26T04:17:37;7.63;;;2.25;;
50900;SDS011;36879;51.416;6.678;2022-10-26T04:20:03;8.50;;;1.80;;
50900;SDS011;36879;51.416;6.678;2022-10-26T04:22:29;10.45;;;2.03;;
50900;SDS011;36879;51.416;6.678;2022-10-26T04:24:55;7.03;;;1.80;;
50900;SDS011;36879;51.416;6.678;2022-10-26T04:27:21;4.60;;;1.83;;
50900;SDS011;36879;51.416;6.678;2022-10-26T04:29:47;8.48;;;2.08;;
50900;SDS011;36879;51.416;6.678;2022-10-26T04:32:13;4.15;;;1.30;;
50900;SDS011;36879;51.416;6.678;2022-10-26T04:34:39;4.03;;;1.85;;
50900;SDS011;36879;51.416;6.678;2022-10-26T04:37:05;8.50;;;1.50;;
50900;SDS011;36879;51.416;6.678;2022-10-26T04:39:31;4.32;;;1.52;;
50900;SDS011;36879;51.416;6.678;2022-10-26T04:41:57;3.53;;;1.67;;
50900;SDS011;36879;51.416;6.678;2022-10-26T04:44:23;6.75;;;1.63;;
50900;SDS011;36879;51.416;6.678;2022-10-26T04:46:49;3.60;;;1.48;;
50900;SDS011;36879;51.416;6.678;2022-10-26T04:49:15;6.13;;;1.35;;
50900;SDS011;36879;51.416;6.678;2022-10-26T04:51:41;4.65;;;1.77;;
50900;SDS011;36879;51.416;6.678;2022-10-26T04:54:07;4.75;;;1.73;;
50900;SDS011;36879;51.416;6.678;2022-10-26T04:56:33;8.02;;;3.10;;
50900;SDS011;36879;51.416;6.678;2022-10-26T04:58:59;7.80;;;2.90;;
50900;SDS011;36879;51.416;6.678;2022-10-26T05:01:25;8.80;;;2.95;;
50900;SDS011;36879;51.416;6.678;2022-10-26T05:03:51;8.38;;;3.30;;
50900;SDS011;36879;51.416;6.678;2022-10-26T05:06:18;10.45;;;3.08;;
50900;SDS011;36879;51.416;6.678;2022-10-26T05:08:44;7.25;;;2.83;;
50900;SDS011;36879;51.416;6.678;2022-10-26T05:11:10;7.70;;;2.55;;
50900;SDS011;36879;51.416;6.678;2022-10-26T05:13:36;5.15;;;1.70;;
50900;SDS011;36879;51.416;6.678;2022-10-26T05:16:02;3.85;;;1.50;;
50900;SDS011;36879;51.416;6.678;2022-10-26T05:18:28;6.20;;;1.55;;
50900;SDS011;36879;51.416;6.678;2022-10-26T05:20:54;6.43;;;2.22;;
50900;SDS011;36879;51.416;6.678;2022-10-26T05:23:20;6.43;;;1.70;;
50900;SDS011;36879;51.416;6.678;2022-10-26T05:25:47;5.50;;;1.92;;
50900;SDS011;36879;51.416;6.678;2022-10-26T05:28:13;6.13;;;2.85;;
50900;SDS011;36879;51.416;6.678;2022-10-26T05:30:39;8.85;;;2.28;;
50900;SDS011;36879;51.416;6.678;2022-10-26T05:33:07;4.40;;;1.80;;
50900;SDS011;36879;51.416;6.678;2022-10-26T05:35:33;4.00;;;2.13;;
50900;SDS011;36879;51.416;6.678;2022-10-26T05:37:59;5.43;;;2.30;;
50900;SDS011;36879;51.416;6.678;2022-10-26T05:40:31;6.22;;;2.03;;
50900;SDS011;36879;51.416;6.678;2022-10-26T05:43:00;6.03;;;2.65;;
50900;SDS011;36879;51.416;6.678;2022-10-26T05:45:26;12.70;;;3.03;;
50900;SDS011;36879;51.416;6.678;2022-10-26T05:47:52;11.50;;;4.10;;
50900;SDS011;36879;51.416;6.678;2022-10-26T05:50:18;9.65;;;4.47;;
50900;SDS011;36879;51.416;6.678;2022-10-26T05:52:45;13.85;;;4.50;;
50900;SDS011;36879;51.416;6.678;2022-10-26T05:55:12;8.77;;;4.53;;
50900;SDS011;36879;51.416;6.678;2022-10-26T05:57:39;8.07;;;3.58;;
50900;SDS011;36879;51.416;6.678;2022-10-26T06:00:06;13.57;;;4.30;;
50900;SDS011;36879;51.416;6.678;2022-10-26T06:02:35;9.43;;;3.20;;
50900;SDS011;36879;51.416;6.678;2022-10-26T06:05:04;9.07;;;2.78;;
50900;SDS011;36879;51.416;6.678;2022-10-26T06:07:30;8.63;;;4.15;;
50900;SDS011;36879;51.416;6.678;2022-10-26T06:09:57;13.82;;;4.95;;
50900;SDS011;36879;51.416;6.678;2022-10-26T06:12:23;10.45;;;4.97;;
50900;SDS011;36879;51.416;6.678;2022-10-26T06:14:50;10.60;;;5.20;;
50900;SDS011;36879;51.416;6.678;2022-10-26T06:20:10;12.30;;;5.72;;
50900;SDS011;36879;51.416;6.678;2022-10-26T06:22:45;15.77;;;5.85;;
50900;SDS011;36879;51.416;6.678;2022-10-26T06:30:57;13.82;;;5.93;;
50900;SDS011;36879;51.416;6.678;2022-10-26T06:33:23;12.65;;;5.45;;
50900;SDS011;36879;51.416;6.678;2022-10-26T06:38:19;10.82;;;4.22;;
50900;SDS011;36879;51.416;6.678;2022-10-26T06:40:50;9.88;;;4.75;;
50900;SDS011;36879;51.416;6.678;2022-10-26T06:43:24;10.85;;;4.95;;
50900;SDS011;36879;51.416;6.678;2022-10-26T06:45:55;10.35;;;4.68;;
50900;SDS011;36879;51.416;6.678;2022-10-26T06:48:26;8.13;;;3.75;;
50900;SDS011;36879;51.416;6.678;2022-10-26T06:50:52;9.18;;;4.55;;
50900;SDS011;36879;51.416;6.678;2022-10-26T06:53:25;8.70;;;4.20;;
50900;SDS011;36879;51.416;6.678;2022-10-26T06:55:52;7.55;;;3.90;;
50900;SDS011;36879;51.416;6.678;2022-10-26T06:58:19;11.45;;;4.43;;
50900;SDS011;36879;51.416;6.678;2022-10-26T07:00:50;12.73;;;4.47;;
50900;SDS011;36879;51.416;6.678;2022-10-26T07:03:17;7.78;;;4.28;;
50900;SDS011;36879;51.416;6.678;2022-10-26T07:05:43;7.50;;;3.15;;
50900;SDS011;36879;51.416;6.678;2022-10-26T07:08:09;5.60;;;3.28;;
50900;SDS011;36879;51.416;6.678;2022-10-26T07:10:35;7.30;;;3.17;;
50900;SDS011;36879;51.416;6.678;2022-10-26T07:13:06;5.93;;;2.42;;
50900;SDS011;36879;51.416;6.678;2022-10-26T07:15:32;6.53;;;2.10;;
50900;SDS011;36879;51.416;6.678;2022-10-26T07:17:58;6.13;;;2.70;;
50900;SDS011;36879;51.416;6.678;2022-10-26T07:20:24;3.50;;;1.55;;
50900;SDS011;36879;51.416;6.678;2022-10-26T07:22:54;4.10;;;1.90;;
50900;SDS011;36879;51.416;6.678;2022-10-26T07:25:21;4.35;;;1.52;;
50900;SDS011;36879;51.416;6.678;2022-10-26T07:27:47;4.25;;;2.08;;
50900;SDS011;36879;51.416;6.678;2022-10-26T07:30:13;5.20;;;1.73;;
50900;SDS011;36879;51.416;6.678;2022-10-26T07:32:39;3.38;;;1.38;;
50900;SDS011;36879;51.416;6.678;2022-10-26T07:35:05;4.82;;;1.20;;
50900;SDS011;36879;51.416;6.678;2022-10-26T07:37:31;3.25;;;1.52;;
50900;SDS011;36879;51.416;6.678;2022-10-26T07:39:57;3.58;;;1.33;;
50900;SDS011;36879;51.416;6.678;2022-10-26T07:42:23;3.83;;;1.40;;
50900;SDS011;36879;51.416;6.678;2022-10-26T07:44:49;2.38;;;1.17;;
50900;SDS011;36879;51.416;6.678;2022-10-26T07:47:15;4.35;;;1.67;;
50900;SDS011;36879;51.416;6.678;2022-10-26T07:49:41;5.13;;;1.38;;
50900;SDS011;36879;51.416;6.678;2022-10-26T07:52:07;3.95;;;1.40;;
50900;SDS011;36879;51.416;6.678;2022-10-26T07:54:34;2.83;;;1.40;;
50900;SDS011;36879;51.416;6.678;2022-10-26T07:57:00;4.55;;;1.40;;
50900;SDS011;36879;51.416;6.678;2022-10-26T07:59:26;4.47;;;1.65;;
50900;SDS011;36879;51.416;6.678;2022-10-26T08:01:52;4.03;;;1.75;;
50900;SDS011;36879;51.416;6.678;2022-10-26T08:04:18;3.47;;;1.70;;
50900;SDS011;36879;51.416;6.678;2022-10-26T08:06:44;2.67;;;1.52;;
50900;SDS011;36879;51.416;6.678;2022-10-26T08:09:11;3.42;;;1.80;;
50900;SDS011;36879;51.416;6.678;2022-10-26T08:11:37;3.70;;;2.08;;
50900;SDS011;36879;51.416;6.678;2022-10-26T08:14:03;6.15;;;1.60;;
50900;SDS011;36879;51.416;6.678;2022-10-26T08:16:29;5.18;;;2.05;;
50900;SDS011;36879;51.416;6.678;2022-10-26T08:18:55;3.60;;;1.50;;
50900;SDS011;36879;51.416;6.678;2022-10-26T08:21:22;5.82;;;1.88;;
50900;SDS011;36879;51.416;6.678;2022-10-26T08:23:48;5.20;;;1.60;;
50900;SDS011;36879;51.416;6.678;2022-10-26T08:26:14;1.90;;;1.00;;
50900;SDS011;36879;51.416;6.678;2022-10-26T08:28:41;5.63;;;1.60;;
50900;SDS011;36879;51.416;6.678;2022-10-26T08:31:07;4.75;;;1.65;;
50900;SDS011;36879;51.416;6.678;2022-10-26T08:33:33;2.55;;;1.45;;
50900;SDS011;36879;51.416;6.678;2022-10-26T08:35:59;3.35;;;1.38;;
50900;SDS011;36879;51.416;6.678;2022-10-26T08:38:26;2.78;;;1.27;;
50900;SDS011;36879;51.416;6.678;2022-10-26T08:40:52;2.83;;;1.70;;
50900;SDS011;36879;51.416;6.678;2022-10-26T08:46:27;2.38;;;1.13;;
50900;SDS011;36879;51.416;6.678;2022-10-26T08:48:55;4.00;;;1.40;;
50900;SDS011;36879;51.416;6.678;2022-10-26T08:51:27;2.75;;;1.30;;
50900;SDS011;36879;51.416;6.678;2022-10-26T08:54:00;3.10;;;1.50;;
50900;SDS011;36879;51.416;6.678;2022-10-26T08:56:33;3.25;;;1.77;;
50900;SDS011;36879;51.416;6.678;2022-10-26T08:59:02;4.43;;;1.75;;
50900;SDS011;36879;51.416;6.678;2022-10-26T09:01:32;4.72;;;1.65;;
50900;SDS011;36879;51.416;6.678;2022-10-26T09:03:59;2.55;;;1.73;;
50900;SDS011;36879;51.416;6.678;2022-10-26T09:11:27;5.15;;;1.50;;
50900;SDS011;36879;51.416;6.678;2022-10-26T09:14:08;5.20;;;1.98;;
50900;SDS011;36879;51.416;6.678;2022-10-26T09:24:29;3.80;;;1.40;;
50900;SDS011;36879;51.416;6.678;2022-10-26T09:29:27;3.22;;;1.10;;
50900;SDS011;36879;51.416;6.678;2022-10-26T09:31:54;3.20;;;1.42;;
50900;SDS011;36879;51.416;6.678;2022-10-26T09:34:26;4.78;;;2.30;;
50900;SDS011;36879;51.416;6.678;2022-10-26T09:36:53;9.70;;;1.63;;
50900;SDS011;36879;51.416;6.678;2022-10-26T09:41:48;3.92;;;1.52;;
50900;SDS011;36879;51.416;6.678;2022-10-26T09:49:11;7.38;;;1.88;;
50900;SDS011;36879;51.416;6.678;2022-10-26T09:51:39;4.18;;;1.45;;
50900;SDS011;36879;51.416;6.678;2022-10-26T09:54:14;6.82;;;2.35;;
50900;SDS011;36879;51.416;6.678;2022-10-26T09:56:41;3.60;;;1.63;;
50900;SDS011;36879;51.416;6.678;2022-10-26T09:59:08;3.70;;;1.33;;
50900;SDS011;36879;51.416;6.678;2022-10-26T10:01:35;3.97;;;1.48;;
50900;SDS011;36879;51.416;6.678;2022-10-26T10:06:40;4.70;;;1.70;;
50900;SDS011;36879;51.416;6.678;2022-10-26T10:11:38;5.15;;;1.92;;
50900;SDS011;36879;51.416;6.678;2022-10-26T10:14:05;3.72;;;1.25;;
50900;SDS011;36879;51.416;6.678;2022-10-26T10:16:32;3.10;;;1.65;;
50900;SDS011;36879;51.416;6.678;2022-10-26T10:18:58;4.88;;;1.67;;
50900;SDS011;36879;51.416;6.678;2022-10-26T10:21:38;4.07;;;1.52;;
50900;SDS011;36879;51.416;6.678;2022-10-26T10:32:14;4.50;;;2.03;;
50900;SDS011;36879;51.416;6.678;2022-10-26T10:34:40;4.60;;;1.30;;
50900;SDS011;36879;51.416;6.678;2022-10-26T10:37:12;3.95;;;1.60;;
50900;SDS011;36879;51.416;6.678;2022-10-26T10:39:45;3.90;;;1.25;;
50900;SDS011;36879;51.416;6.678;2022-10-26T10:42:15;3.33;;;1.90;;
50900;SDS011;36879;51.416;6.678;2022-10-26T10:44:42;2.92;;;1.30;;
50900;SDS011;36879;51.416;6.678;2022-10-26T10:47:15;4.43;;;1.13;;
50900;SDS011;36879;51.416;6.678;2022-10-26T10:49:43;3.92;;;1.23;;
50900;SDS011;36879;51.416;6.678;2022-10-26T10:52:26;3.87;;;1.47;;
50900;SDS011;36879;51.416;6.678;2022-10-26T10:54:55;5.07;;;1.33;;
50900;SDS011;36879;51.416;6.678;2022-10-26T11:02:41;3.90;;;1.40;;
50900;SDS011;36879;51.416;6.678;2022-10-26T11:05:21;2.55;;;1.73;;
50900;SDS011;36879;51.416;6.678;2022-10-26T11:07:54;5.45;;;2.00;;
50900;SDS011;36879;51.416;6.678;2022-10-26T11:10:23;4.47;;;1.30;;
50900;SDS011;36879;51.416;6.678;2022-10-26T11:12:56;3.20;;;1.15;;
50900;SDS011;36879;51.416;6.678;2022-10-26T11:15:25;3.33;;;1.17;;
50900;SDS011;36879;51.416;6.678;2022-10-26T11:20:25;4.70;;;1.52;;
50900;SDS011;36879;51.416;6.678;2022-10-26T11:23:01;5.63;;;1.52;;
50900;SDS011;36879;51.416;6.678;2022-10-26T11:25:29;5.75;;;0.90;;
50900;SDS011;36879;51.416;6.678;2022-10-26T11:31:00;5.43;;;1.52;;
50900;SDS011;36879;51.416;6.678;2022-10-26T11:33:39;3.10;;;1.15;;
50900;SDS011;36879;51.416;6.678;2022-10-26T11:36:13;3.67;;;1.60;;
50900;SDS011;36879;51.416;6.678;2022-10-26T11:38:45;2.63;;;1.00;;
50900;SDS011;36879;51.416;6.678;2022-10-26T11:41:14;2.55;;;1.15;;
50900;SDS011;36879;51.416;6.678;2022-10-26T11:43:44;5.53;;;1.45;;
50900;SDS011;36879;51.416;6.678;2022-10-26T11:52:12;2.55;;;1.08;;
50900;SDS011;36879;51.416;6.678;2022-10-26T11:54:11;2.63;;;0.85;;
50900;SDS011;36879;51.416;6.678;2022-10-26T11:56:41;3.17;;;1.45;;
50900;SDS011;36879;51.416;6.678;2022-10-26T11:59:14;3.15;;;1.42;;
50900;SDS011;36879;51.416;6.678;2022-10-26T12:01:42;2.40;;;1.02;;
50900;SDS011;36879;51.416;6.678;2022-10-26T12:04:08;3.08;;;1.30;;
50900;SDS011;36879;51.416;6.678;2022-10-26T12:06:35;2.63;;;0.88;;
50900;SDS011;36879;51.416;6.678;2022-10-26T12:11:47;4.50;;;1.23;;
50900;SDS011;36879;51.416;6.678;2022-10-26T12:16:48;2.13;;;0.90;;
50900;SDS011;36879;51.416;6.678;2022-10-26T12:19:40;2.03;;;0.85;;
50900;SDS011;36879;51.416;6.678;2022-10-26T12:22:03;3.90;;;0.70;;
50900;SDS011;36879;51.416;6.678;2022-10-26T12:24:30;3.97;;;1.20;;
50900;SDS011;36879;51.416;6.678;2022-10-26T12:27:03;5.95;;;1.05;;
50900;SDS011;36879;51.416;6.678;2022-10-26T12:32:00;2.83;;;0.85;;
50900;SDS011;36879;51.416;6.678;2022-10-26T12:47:05;3.85;;;0.82;;
50900;SDS011;36879;51.416;6.678;2022-10-26T12:52:20;2.30;;;0.95;;
50900;SDS011;36879;51.416;6.678;2022-10-26T12:54:56;2.80;;;0.93;;
50900;SDS011;36879;51.416;6.678;2022-10-26T12:57:29;1.00;;;0.55;;
50900;SDS011;36879;51.416;6.678;2022-10-26T12:59:59;3.85;;;1.15;;
50900;SDS011;36879;51.416;6.678;2022-10-26T13:07:37;3.20;;;1.00;;
50900;SDS011;36879;51.416;6.678;2022-10-26T13:15:19;1.10;;;0.50;;
50900;SDS011;36879;51.416;6.678;2022-10-26T13:20:24;3.78;;;1.00;;
50900;SDS011;36879;51.416;6.678;2022-10-26T13:22:50;2.65;;;0.80;;
50900;SDS011;36879;51.416;6.678;2022-10-26T13:25:21;4.05;;;0.70;;
50900;SDS011;36879;51.416;6.678;2022-10-26T13:30:46;2.80;;;0.80;;
50900;SDS011;36879;51.416;6.678;2022-10-26T13:33:16;4.72;;;1.08;;
50900;SDS011;36879;51.416;6.678;2022-10-26T13:35:44;3.30;;;0.80;;
50900;SDS011;36879;51.416;6.678;2022-10-26T13:38:11;3.40;;;1.00;;
50900;SDS011;36879;51.416;6.678;2022-10-26T13:40:38;3.65;;;1.13;;
50900;SDS011;36879;51.416;6.678;2022-10-26T13:43:05;1.58;;;0.80;;
50900;SDS011;36879;51.416;6.678;2022-10-26T13:45:37;3.10;;;0.73;;
50900;SDS011;36879;51.416;6.678;2022-10-26T13:48:16;1.80;;;0.85;;
50900;SDS011;36879;51.416;6.678;2022-10-26T13:55:53;3.28;;;1.05;;
50900;SDS011;36879;51.416;6.678;2022-10-26T13:58:33;2.22;;;0.70;;
50900;SDS011;36879;51.416;6.678;2022-10-26T14:03:39;2.80;;;1.10;;
50900;SDS011;36879;51.416;6.678;2022-10-26T14:08:32;0.70;;;0.57;;
50900;SDS011;36879;51.416;6.678;2022-10-26T14:10:58;4.20;;;0.85;;
50900;SDS011;36879;51.416;6.678;2022-10-26T14:13:25;2.72;;;1.23;;
50900;SDS011;36879;51.416;6.678;2022-10-26T14:15:51;2.40;;;0.82;;
50900;SDS011;36879;51.416;6.678;2022-10-26T14:18:22;2.83;;;1.10;;
50900;SDS011;36879;51.416;6.678;2022-10-26T14:20:59;2.25;;;0.80;;
50900;SDS011;36879;51.416;6.678;2022-10-26T14:23:48;3.72;;;1.25;;
50900;SDS011;36879;51.416;6.678;2022-10-26T14:26:29;1.83;;;0.90;;
50900;SDS011;36879;51.416;6.678;2022-10-26T14:28:56;1.88;;;0.70;;
50900;SDS011;36879;51.416;6.678;2022-10-26T14:31:27;2.33;;;0.80;;
50900;SDS011;36879;51.416;6.678;2022-10-26T14:33:53;2.10;;;0.98;;
50900;SDS011;36879;51.416;6.678;2022-10-26T14:36:21;1.20;;;0.80;;
50900;SDS011;36879;51.416;6.678;2022-10-26T14:38:50;3.30;;;1.15;;
50900;SDS011;36879;51.416;6.678;2022-10-26T14:41:18;2.97;;;0.80;;
50900;SDS011;36879;51.416;6.678;2022-10-26T14:43:44;2.90;;;0.88;;
50900;SDS011;36879;51.416;6.678;2022-10-26T14:46:19;2.47;;;1.10;;
50900;SDS011;36879;51.416;6.678;2022-10-26T14:48:53;2.37;;;1.10;;
50900;SDS011;36879;51.416;6.678;2022-10-26T14:51:20;1.42;;;0.80;;
50900;SDS011;36879;51.416;6.678;2022-10-26T14:53:47;4.22;;;1.10;;
50900;SDS011;36879;51.416;6.678;2022-10-26T14:56:56;1.25;;;0.80;;
50900;SDS011;36879;51.416;6.678;2022-10-26T14:59:11;2.13;;;1.17;;
50900;SDS011;36879;51.416;6.678;2022-10-26T15:01:50;3.10;;;0.80;;
50900;SDS011;36879;51.416;6.678;2022-10-26T15:06:59;2.40;;;0.98;;
50900;SDS011;36879;51.416;6.678;2022-10-26T15:09:27;1.65;;;1.15;;
50900;SDS011;36879;51.416;6.678;2022-10-26T15:11:54;2.78;;;1.73;;
50900;SDS011;36879;51.416;6.678;2022-10-26T15:14:20;1.52;;;0.70;;
50900;SDS011;36879;51.416;6.678;2022-10-26T15:16:50;3.55;;;1.40;;
50900;SDS011;36879;51.416;6.678;2022-10-26T15:19:17;3.30;;;1.73;;
50900;SDS011;36879;51.416;6.678;2022-10-26T15:21:47;3.63;;;1.33;;
50900;SDS011;36879;51.416;6.678;2022-10-26T15:26:46;1.27;;;0.80;;
50900;SDS011;36879;51.416;6.678;2022-10-26T15:32:00;2.22;;;1.10;;
50900;SDS011;36879;51.416;6.678;2022-10-26T15:34:26;1.55;;;0.80;;
50900;SDS011;36879;51.416;6.678;2022-10-26T15:36:52;3.58;;;0.85;;
50900;SDS011;36879;51.416;6.678;2022-10-26T15:39:18;1.45;;;0.90;;
50900;SDS011;36879;51.416;6.678;2022-10-26T15:41:44;2.35;;;0.82;;
50900;SDS011;36879;51.416;6.678;2022-10-26T15:44:20;1.30;;;0.70;;
50900;SDS011;36879;51.416;6.678;2022-10-26T15:46:46;2.47;;;0.93;;
50900;SDS011;36879;51.416;6.678;2022-10-26T15:49:19;2.55;;;1.25;;
50900;SDS011;36879;51.416;6.678;2022-10-26T15:51:46;1.70;;;1.13;;
50900;SDS011;36879;51.416;6.678;2022-10-26T15:54:12;3.55;;;1.17;;
50900;SDS011;36879;51.416;6.678;2022-10-26T15:56:38;3.10;;;1.08;;
50900;SDS011;36879;51.416;6.678;2022-10-26T15:59:14;3.30;;;1.20;;
50900;SDS011;36879;51.416;6.678;2022-10-26T16:01:40;1.50;;;0.90;;
50900;SDS011;36879;51.416;6.678;2022-10-26T16:04:07;3.72;;;0.90;;
50900;SDS011;36879;51.416;6.678;2022-10-26T16:06:34;3.40;;;1.10;;
50900;SDS011;36879;51.416;6.678;2022-10-26T16:09:01;6.40;;;1.02;;
50900;SDS011;36879;51.416;6.678;2022-10-26T16:11:28;3.95;;;1.58;;
50900;SDS011;36879;51.416;6.678;2022-10-26T16:13:54;3.00;;;1.30;;
50900;SDS011;36879;51.416;6.678;2022-10-26T16:16:21;4.20;;;1.05;;
50900;SDS011;36879;51.416;6.678;2022-10-26T16:18:47;3.60;;;1.33;;
50900;SDS011;36879;51.416;6.678;2022-10-26T16:21:17;1.50;;;0.90;;
50900;SDS011;36879;51.416;6.678;2022-10-26T16:23:47;2.50;;;1.15;;
50900;SDS011;36879;51.416;6.678;2022-10-26T16:26:13;3.65;;;1.00;;
50900;SDS011;36879;51.416;6.678;2022-10-26T16:28:39;1.20;;;0.80;;
50900;SDS011;36879;51.416;6.678;2022-10-26T16:31:07;1.88;;;0.85;;
50900;SDS011;36879;51.416;6.678;2022-10-26T16:33:33;3.08;;;1.02;;
50900;SDS011;36879;51.416;6.678;2022-10-26T16:35:59;4.10;;;0.90;;
50900;SDS011;36879;51.416;6.678;2022-10-26T16:38:26;5.90;;;1.40;;
50900;SDS011;36879;51.416;6.678;2022-10-26T16:43:29;2.25;;;1.02;;
50900;SDS011;36879;51.416;6.678;2022-10-26T16:45:56;5.15;;;1.40;;
50900;SDS011;36879;51.416;6.678;2022-10-26T16:48:22;3.17;;;1.23;;
50900;SDS011;36879;51.416;6.678;2022-10-26T16:50:48;1.83;;;1.00;;
50900;SDS011;36879;51.416;6.678;2022-10-26T16:53:14;2.78;;;1.10;;
50900;SDS011;36879;51.416;6.678;2022-10-26T16:55:39;1.65;;;1.00;;
50900;SDS011;36879;51.416;6.678;2022-10-26T16:58:06;2.00;;;1.02;;
50900;SDS011;36879;51.416;6.678;2022-10-26T17:00:33;1.92;;;1.10;;
50900;SDS011;36879;51.416;6.678;2022-10-26T17:02:59;2.03;;;1.20;;
50900;SDS011;36879;51.416;6.678;2022-10-26T17:05:26;1.55;;;1.02;;
50900;SDS011;36879;51.416;6.678;2022-10-26T17:07:52;2.08;;;1.25;;
50900;SDS011;36879;51.416;6.678;2022-10-26T17:10:19;3.03;;;1.23;;
50900;SDS011;36879;51.416;6.678;2022-10-26T17:12:45;2.63;;;1.20;;
50900;SDS011;36879;51.416;6.678;2022-10-26T17:15:11;4.07;;;1.40;;
50900;SDS011;36879;51.416;6.678;2022-10-26T17:17:37;4.55;;;1.20;;
50900;SDS011;36879;51.416;6.678;2022-10-26T17:20:03;4.60;;;1.70;;